Heubes-Wetterstation in 44289 Dortmund
Heubes-Wetterstation

Messwerte der letzten 60 Minuten im Minuten-Intervall (Wetterstation 44289 Dortmund)

Datum & Uhrzeit Temp. Feucht. Wind-Ø Böen Sekt.  Regen Rate Luftdruck
28.05.2024 - 15:4319.2 °C56%5 km/h 11 km/h SW0.0 mm 0.0 mm 1017.0 hPa, gleichbleibend
28.05.2024 - 15:4219.2 °C58%8 km/h 15 km/h SW0.0 mm 0.0 mm 1017.0 hPa, langsam fallend
28.05.2024 - 15:4119.3 °C58%6 km/h 11 km/h W-SW0.0 mm 0.0 mm 1017.1 hPa, langsam steigend
28.05.2024 - 15:4019.2 °C59%5 km/h 13 km/h SW0.0 mm 0.0 mm 1017.0 hPa, gleichbleibend
28.05.2024 - 15:3919.2 °C58%5 km/h 8 km/h S-SW0.0 mm 0.0 mm 1017.0 hPa, gleichbleibend
28.05.2024 - 15:3819.1 °C59%6 km/h 15 km/h SW0.0 mm 0.0 mm 1017.0 hPa, gleichbleibend
28.05.2024 - 15:3719.0 °C58%0 km/h 0 km/h N0.0 mm 0.0 mm 1017.0 hPa, gleichbleibend
28.05.2024 - 15:3618.9 °C59%0 km/h 0 km/h N0.0 mm 0.0 mm 1017.0 hPa, langsam fallend
28.05.2024 - 15:3518.9 °C57%2 km/h 6 km/h SW0.0 mm 0.0 mm 1017.1 hPa, langsam steigend
28.05.2024 - 15:3418.8 °C56%3 km/h 8 km/h SW0.0 mm 0.0 mm 1017.0 hPa, langsam fallend
28.05.2024 - 15:3318.9 °C56%2 km/h 5 km/h SW0.0 mm 0.0 mm 1017.1 hPa, gleichbleibend
28.05.2024 - 15:3218.9 °C57%5 km/h 11 km/h W-SW0.0 mm 0.0 mm 1017.1 hPa, gleichbleibend
28.05.2024 - 15:3119.0 °C56%6 km/h 11 km/h W-SW0.0 mm 0.0 mm 1017.1 hPa, gleichbleibend
28.05.2024 - 15:3019.0 °C58%3 km/h 8 km/h SW0.0 mm 0.0 mm 1017.1 hPa, gleichbleibend
28.05.2024 - 15:2918.9 °C59%3 km/h 11 km/h SW0.0 mm 0.0 mm 1017.1 hPa, gleichbleibend
28.05.2024 - 15:2818.8 °C58%11 km/h 16 km/h SW0.0 mm 0.0 mm 1017.1 hPa, langsam fallend
28.05.2024 - 15:2718.8 °C59%13 km/h 18 km/h S-SW0.0 mm 0.0 mm 1017.2 hPa, gleichbleibend
28.05.2024 - 15:2618.8 °C56%2 km/h 5 km/h SW0.0 mm 0.0 mm 1017.2 hPa, gleichbleibend
28.05.2024 - 15:2518.8 °C54%8 km/h 15 km/h SW0.0 mm 0.0 mm 1017.2 hPa, gleichbleibend
28.05.2024 - 15:2418.8 °C55%10 km/h 18 km/h W0.0 mm 0.0 mm 1017.2 hPa, gleichbleibend
28.05.2024 - 15:2318.8 °C56%6 km/h 15 km/h SW0.0 mm 0.0 mm 1017.2 hPa, gleichbleibend
28.05.2024 - 15:2218.9 °C55%8 km/h 16 km/h W-SW0.0 mm 0.0 mm 1017.2 hPa, gleichbleibend
28.05.2024 - 15:2118.9 °C58%10 km/h 18 km/h W-SW0.0 mm 0.0 mm 1017.3 hPa, gleichbleibend
28.05.2024 - 15:2018.9 °C60%8 km/h 16 km/h W-SW0.0 mm 0.0 mm 1017.3 hPa, gleichbleibend
28.05.2024 - 15:1918.8 °C60%6 km/h 15 km/h SW0.0 mm 0.0 mm 1017.2 hPa, gleichbleibend
28.05.2024 - 15:1818.8 °C60%5 km/h 13 km/h SW0.0 mm 0.0 mm 1017.2 hPa, gleichbleibend
28.05.2024 - 15:1718.7 °C60%5 km/h 11 km/h SW0.0 mm 0.0 mm 1017.3 hPa, gleichbleibend
28.05.2024 - 15:1618.6 °C60%6 km/h 16 km/h W-SW0.0 mm 0.0 mm 1017.3 hPa, gleichbleibend
28.05.2024 - 15:1518.5 °C61%6 km/h 15 km/h W-SW0.0 mm 0.0 mm 1017.3 hPa, gleichbleibend
28.05.2024 - 15:1418.4 °C60%10 km/h 18 km/h W-SW0.0 mm 0.0 mm 1017.2 hPa, gleichbleibend
28.05.2024 - 15:1318.4 °C60%5 km/h 10 km/h SW0.0 mm 0.0 mm 1017.3 hPa, gleichbleibend
28.05.2024 - 15:1218.4 °C58%6 km/h 13 km/h W-SW0.0 mm 0.0 mm 1017.3 hPa, langsam fallend
28.05.2024 - 15:1118.5 °C58%3 km/h 11 km/h W-SW0.0 mm 0.0 mm 1017.4 hPa, langsam steigend
28.05.2024 - 15:1018.6 °C59%0 km/h 3 km/h N0.0 mm 0.0 mm 1017.3 hPa, langsam fallend
28.05.2024 - 15:0918.6 °C59%3 km/h 6 km/h W-SW0.0 mm 0.0 mm 1017.4 hPa, gleichbleibend
28.05.2024 - 15:0818.6 °C59%10 km/h 16 km/h W-SW0.0 mm 0.0 mm 1017.4 hPa, gleichbleibend
28.05.2024 - 15:0718.6 °C61%11 km/h 18 km/h W-SW0.0 mm 0.0 mm 1017.4 hPa, gleichbleibend
28.05.2024 - 15:0618.4 °C61%8 km/h 24 km/h SW0.0 mm 0.0 mm 1017.4 hPa, langsam fallend
28.05.2024 - 15:0518.3 °C62%3 km/h 13 km/h S-SW0.0 mm 0.0 mm 1017.5 hPa, langsam steigend
28.05.2024 - 15:0418.2 °C61%8 km/h 15 km/h S-SW0.0 mm 0.0 mm 1017.4 hPa, langsam fallend
28.05.2024 - 15:0318.0 °C61%8 km/h 13 km/h SW0.0 mm 0.0 mm 1017.5 hPa, langsam steigend
28.05.2024 - 15:0217.9 °C60%10 km/h 16 km/h W-SW0.0 mm 0.0 mm 1017.4 hPa, gleichbleibend
28.05.2024 - 15:0117.9 °C61%10 km/h 16 km/h W-SW0.0 mm 0.0 mm 1017.4 hPa, langsam fallend
28.05.2024 - 15:0017.8 °C60%8 km/h 18 km/h SW0.0 mm 0.0 mm 1017.5 hPa, langsam steigend
28.05.2024 - 14:5917.9 °C60%2 km/h 5 km/h SW0.0 mm 0.0 mm 1017.4 hPa, langsam fallend
28.05.2024 - 14:5817.9 °C60%0 km/h 0 km/h N0.0 mm 0.0 mm 1017.5 hPa, langsam steigend
28.05.2024 - 14:5718.0 °C59%0 km/h 0 km/h N0.0 mm 0.0 mm 1017.4 hPa, langsam fallend
28.05.2024 - 14:5618.1 °C58%3 km/h 15 km/h SW0.0 mm 0.0 mm 1017.5 hPa, langsam steigend
28.05.2024 - 14:5518.1 °C58%11 km/h 18 km/h W-SW0.0 mm 0.0 mm 1017.4 hPa, langsam fallend
28.05.2024 - 14:5418.2 °C58%11 km/h 18 km/h W-SW0.0 mm 0.0 mm 1017.5 hPa, langsam steigend
28.05.2024 - 14:5318.3 °C59%13 km/h 21 km/h SW0.0 mm 0.0 mm 1017.4 hPa, gleichbleibend
28.05.2024 - 14:5218.6 °C59%3 km/h 18 km/h SW0.0 mm 0.0 mm 1017.4 hPa, langsam fallend
28.05.2024 - 14:5118.7 °C58%6 km/h 11 km/h S-SW0.0 mm 0.0 mm 1017.5 hPa, langsam steigend
28.05.2024 - 14:5018.8 °C59%5 km/h 16 km/h S-SW0.0 mm 0.0 mm 1017.4 hPa, gleichbleibend
28.05.2024 - 14:4918.8 °C58%5 km/h 19 km/h SW0.0 mm 0.0 mm 1017.4 hPa, langsam fallend
28.05.2024 - 14:4818.8 °C60%0 km/h 3 km/h N0.0 mm 0.0 mm 1017.5 hPa, gleichbleibend
28.05.2024 - 14:4718.7 °C61%2 km/h 10 km/h W-SW0.0 mm 0.0 mm 1017.5 hPa, gleichbleibend
28.05.2024 - 14:4618.6 °C59%5 km/h 13 km/h S-SW0.0 mm 0.0 mm 1017.5 hPa, gleichbleibend
28.05.2024 - 14:4518.4 °C61%5 km/h 11 km/h S-SO0.0 mm 0.0 mm 1017.5 hPa, gleichbleibend
28.05.2024 - 14:4418.3 °C60%2 km/h 8 km/h SW0.0 mm 0.0 mm 1017.5 hPa, langsam steigend